sensor_id;sensor_type;location;lat;lon;timestamp;temperature;humidity
23411;DHT22;11878;51.774;7.220;2023-07-28T00:02:50;17.10;99.90
23411;DHT22;11878;51.774;7.220;2023-07-28T00:05:52;17.10;99.90
23411;DHT22;11878;51.774;7.220;2023-07-28T00:08:54;17.10;99.90
23411;DHT22;11878;51.774;7.220;2023-07-28T00:11:57;17.10;99.90
23411;DHT22;11878;51.774;7.220;2023-07-28T00:14:59;17.10;99.90
23411;DHT22;11878;51.774;7.220;2023-07-28T00:18:01;17.10;99.90
23411;DHT22;11878;51.774;7.220;2023-07-28T00:21:05;17.10;99.90
23411;DHT22;11878;51.774;7.220;2023-07-28T00:24:07;17.10;99.90
23411;DHT22;11878;51.774;7.220;2023-07-28T00:27:08;17.00;99.90
23411;DHT22;11878;51.774;7.220;2023-07-28T00:30:11;17.10;99.90
23411;DHT22;11878;51.774;7.220;2023-07-28T00:33:12;17.00;99.90
23411;DHT22;11878;51.774;7.220;2023-07-28T00:36:14;17.00;99.90
23411;DHT22;11878;51.774;7.220;2023-07-28T00:39:16;17.10;99.90
23411;DHT22;11878;51.774;7.220;2023-07-28T00:42:18;17.10;99.90
23411;DHT22;11878;51.774;7.220;2023-07-28T00:45:20;17.10;99.90
23411;DHT22;11878;51.774;7.220;2023-07-28T00:48:23;17.10;99.90
23411;DHT22;11878;51.774;7.220;2023-07-28T00:51:27;17.10;99.90
23411;DHT22;11878;51.774;7.220;2023-07-28T00:54:29;17.10;99.90
23411;DHT22;11878;51.774;7.220;2023-07-28T00:57:31;17.10;99.90
23411;DHT22;11878;51.774;7.220;2023-07-28T01:00:33;17.10;99.90
23411;DHT22;11878;51.774;7.220;2023-07-28T01:03:35;17.10;99.90
23411;DHT22;11878;51.774;7.220;2023-07-28T01:06:46;17.10;99.90
23411;DHT22;11878;51.774;7.220;2023-07-28T01:12:57;17.10;99.90
23411;DHT22;11878;51.774;7.220;2023-07-28T01:15:59;17.10;99.90
23411;DHT22;11878;51.774;7.220;2023-07-28T01:19:03;17.10;99.90
23411;DHT22;11878;51.774;7.220;2023-07-28T01:22:37;17.10;99.90
23411;DHT22;11878;51.774;7.220;2023-07-28T01:28:49;17.10;99.90
23411;DHT22;11878;51.774;7.220;2023-07-28T01:31:51;17.10;99.90
23411;DHT22;11878;51.774;7.220;2023-07-28T01:34:53;17.10;99.90
23411;DHT22;11878;51.774;7.220;2023-07-28T01:37:55;17.10;99.90
23411;DHT22;11878;51.774;7.220;2023-07-28T01:40:57;17.10;99.90
23411;DHT22;11878;51.774;7.220;2023-07-28T01:43:59;17.10;99.90
23411;DHT22;11878;51.774;7.220;2023-07-28T01:47:00;17.00;99.90
23411;DHT22;11878;51.774;7.220;2023-07-28T01:50:02;17.10;99.90
23411;DHT22;11878;51.774;7.220;2023-07-28T01:53:05;17.10;99.90
23411;DHT22;11878;51.774;7.220;2023-07-28T01:56:07;17.00;99.90
23411;DHT22;11878;51.774;7.220;2023-07-28T01:59:09;17.10;99.90
23411;DHT22;11878;51.774;7.220;2023-07-28T02:02:12;16.90;99.90
23411;DHT22;11878;51.774;7.220;2023-07-28T02:05:14;17.00;99.90
23411;DHT22;11878;51.774;7.220;2023-07-28T02:08:15;17.00;99.90
23411;DHT22;11878;51.774;7.220;2023-07-28T02:11:17;17.00;99.90
23411;DHT22;11878;51.774;7.220;2023-07-28T02:14:19;17.00;99.90
23411;DHT22;11878;51.774;7.220;2023-07-28T02:20:52;17.00;99.90
23411;DHT22;11878;51.774;7.220;2023-07-28T02:23:53;16.90;99.90
23411;DHT22;11878;51.774;7.220;2023-07-28T02:26:55;17.00;99.90
23411;DHT22;11878;51.774;7.220;2023-07-28T02:30:00;17.00;99.90
23411;DHT22;11878;51.774;7.220;2023-07-28T02:33:02;16.80;99.90
23411;DHT22;11878;51.774;7.220;2023-07-28T02:36:05;17.00;99.90
23411;DHT22;11878;51.774;7.220;2023-07-28T02:39:06;16.40;99.90
23411;DHT22;11878;51.774;7.220;2023-07-28T02:42:08;16.90;99.90
23411;DHT22;11878;51.774;7.220;2023-07-28T02:45:10;16.90;99.90
23411;DHT22;11878;51.774;7.220;2023-07-28T02:48:12;16.90;99.90
23411;DHT22;11878;51.774;7.220;2023-07-28T02:54:45;17.00;99.90
23411;DHT22;11878;51.774;7.220;2023-07-28T02:57:46;16.80;99.90
23411;DHT22;11878;51.774;7.220;2023-07-28T03:00:51;16.80;99.90
23411;DHT22;11878;51.774;7.220;2023-07-28T03:04:00;16.80;99.90
23411;DHT22;11878;51.774;7.220;2023-07-28T03:07:03;17.00;99.90
23411;DHT22;11878;51.774;7.220;2023-07-28T03:10:06;17.10;99.90
23411;DHT22;11878;51.774;7.220;2023-07-28T03:13:10;17.10;99.90
23411;DHT22;11878;51.774;7.220;2023-07-28T03:16:12;17.10;99.90
23411;DHT22;11878;51.774;7.220;2023-07-28T03:22:59;17.10;99.90
23411;DHT22;11878;51.774;7.220;2023-07-28T03:26:04;17.00;99.90
23411;DHT22;11878;51.774;7.220;2023-07-28T03:29:09;16.90;99.90
23411;DHT22;11878;51.774;7.220;2023-07-28T03:32:16;17.20;99.90
23411;DHT22;11878;51.774;7.220;2023-07-28T03:35:19;17.30;99.90
23411;DHT22;11878;51.774;7.220;2023-07-28T03:38:38;17.20;99.90
23411;DHT22;11878;51.774;7.220;2023-07-28T03:41:40;17.10;99.90
23411;DHT22;11878;51.774;7.220;2023-07-28T03:44:43;17.20;99.90
23411;DHT22;11878;51.774;7.220;2023-07-28T03:47:46;17.00;99.90
23411;DHT22;11878;51.774;7.220;2023-07-28T03:50:51;17.00;99.90
23411;DHT22;11878;51.774;7.220;2023-07-28T03:53:54;17.00;99.90
23411;DHT22;11878;51.774;7.220;2023-07-28T03:56:59;17.10;99.90
23411;DHT22;11878;51.774;7.220;2023-07-28T04:00:02;17.30;99.90
23411;DHT22;11878;51.774;7.220;2023-07-28T04:03:13;17.10;99.90
23411;DHT22;11878;51.774;7.220;2023-07-28T04:06:15;17.00;99.90
23411;DHT22;11878;51.774;7.220;2023-07-28T04:09:18;17.10;99.90
23411;DHT22;11878;51.774;7.220;2023-07-28T04:12:21;17.10;99.90
23411;DHT22;11878;51.774;7.220;2023-07-28T04:15:27;16.90;99.90
23411;DHT22;11878;51.774;7.220;2023-07-28T04:18:29;17.00;99.90
23411;DHT22;11878;51.774;7.220;2023-07-28T04:21:40;17.10;99.90
23411;DHT22;11878;51.774;7.220;2023-07-28T04:24:46;17.20;99.90
23411;DHT22;11878;51.774;7.220;2023-07-28T04:27:53;17.10;99.90
23411;DHT22;11878;51.774;7.220;2023-07-28T04:30:56;17.00;99.90
23411;DHT22;11878;51.774;7.220;2023-07-28T04:34:33;17.20;99.90
23411;DHT22;11878;51.774;7.220;2023-07-28T04:37:48;17.30;99.90
23411;DHT22;11878;51.774;7.220;2023-07-28T04:40:59;17.20;99.90
23411;DHT22;11878;51.774;7.220;2023-07-28T04:44:32;17.10;99.90
23411;DHT22;11878;51.774;7.220;2023-07-28T04:47:37;17.10;99.90
23411;DHT22;11878;51.774;7.220;2023-07-28T04:50:48;17.30;99.90
23411;DHT22;11878;51.774;7.220;2023-07-28T04:54:31;17.20;99.90
23411;DHT22;11878;51.774;7.220;2023-07-28T04:57:33;17.30;99.90
23411;DHT22;11878;51.774;7.220;2023-07-28T05:00:35;17.20;99.90
23411;DHT22;11878;51.774;7.220;2023-07-28T05:03:46;17.30;99.90
23411;DHT22;11878;51.774;7.220;2023-07-28T05:07:03;17.60;99.90
23411;DHT22;11878;51.774;7.220;2023-07-28T05:10:06;17.20;99.90
23411;DHT22;11878;51.774;7.220;2023-07-28T05:13:08;17.30;99.90
23411;DHT22;11878;51.774;7.220;2023-07-28T05:16:11;17.40;99.90
23411;DHT22;11878;51.774;7.220;2023-07-28T05:19:51;17.40;99.90
23411;DHT22;11878;51.774;7.220;2023-07-28T05:23:36;17.30;99.90
23411;DHT22;11878;51.774;7.220;2023-07-28T05:30:26;17.40;99.90
23411;DHT22;11878;51.774;7.220;2023-07-28T05:33:33;17.50;99.90
23411;DHT22;11878;51.774;7.220;2023-07-28T05:37:02;17.50;99.90
23411;DHT22;11878;51.774;7.220;2023-07-28T05:40:25;17.40;99.90
23411;DHT22;11878;51.774;7.220;2023-07-28T05:43:30;17.40;99.90
23411;DHT22;11878;51.774;7.220;2023-07-28T05:46:34;17.50;99.90
23411;DHT22;11878;51.774;7.220;2023-07-28T05:49:38;17.50;99.90
23411;DHT22;11878;51.774;7.220;2023-07-28T05:52:44;17.40;99.90
23411;DHT22;11878;51.774;7.220;2023-07-28T05:55:47;17.40;99.90
23411;DHT22;11878;51.774;7.220;2023-07-28T05:58:52;17.40;99.90
23411;DHT22;11878;51.774;7.220;2023-07-28T06:01:54;17.40;99.90
23411;DHT22;11878;51.774;7.220;2023-07-28T06:05:19;17.40;99.90
23411;DHT22;11878;51.774;7.220;2023-07-28T06:08:24;17.40;99.90
23411;DHT22;11878;51.774;7.220;2023-07-28T06:11:31;17.50;99.90
23411;DHT22;11878;51.774;7.220;2023-07-28T06:14:34;17.50;99.90
23411;DHT22;11878;51.774;7.220;2023-07-28T06:17:41;17.40;99.90
23411;DHT22;11878;51.774;7.220;2023-07-28T06:20:44;17.60;99.90
23411;DHT22;11878;51.774;7.220;2023-07-28T06:23:47;17.60;99.90
23411;DHT22;11878;51.774;7.220;2023-07-28T06:27:03;17.60;99.90
23411;DHT22;11878;51.774;7.220;2023-07-28T06:30:14;17.70;99.90
23411;DHT22;11878;51.774;7.220;2023-07-28T06:33:20;17.80;99.90
23411;DHT22;11878;51.774;7.220;2023-07-28T06:36:26;17.80;99.90
23411;DHT22;11878;51.774;7.220;2023-07-28T06:39:33;17.80;99.90
23411;DHT22;11878;51.774;7.220;2023-07-28T06:42:36;17.80;99.90
23411;DHT22;11878;51.774;7.220;2023-07-28T06:45:38;17.80;99.90
23411;DHT22;11878;51.774;7.220;2023-07-28T06:48:42;17.70;99.90
23411;DHT22;11878;51.774;7.220;2023-07-28T06:51:45;17.70;99.90
23411;DHT22;11878;51.774;7.220;2023-07-28T06:54:52;17.70;99.90
23411;DHT22;11878;51.774;7.220;2023-07-28T06:58:03;17.70;99.90
23411;DHT22;11878;51.774;7.220;2023-07-28T07:01:05;17.70;99.90
23411;DHT22;11878;51.774;7.220;2023-07-28T07:04:08;17.70;99.90
23411;DHT22;11878;51.774;7.220;2023-07-28T07:07:10;17.70;99.90
23411;DHT22;11878;51.774;7.220;2023-07-28T07:10:11;17.70;99.90
23411;DHT22;11878;51.774;7.220;2023-07-28T07:13:13;17.60;99.90
23411;DHT22;11878;51.774;7.220;2023-07-28T07:16:16;17.70;99.90
23411;DHT22;11878;51.774;7.220;2023-07-28T07:19:25;17.70;99.90
23411;DHT22;11878;51.774;7.220;2023-07-28T07:22:27;17.70;99.90
23411;DHT22;11878;51.774;7.220;2023-07-28T07:25:30;17.70;99.90
23411;DHT22;11878;51.774;7.220;2023-07-28T07:28:36;17.80;99.90
23411;DHT22;11878;51.774;7.220;2023-07-28T07:31:39;17.90;99.90
23411;DHT22;11878;51.774;7.220;2023-07-28T07:34:41;17.80;99.90
23411;DHT22;11878;51.774;7.220;2023-07-28T07:37:46;17.90;99.90
23411;DHT22;11878;51.774;7.220;2023-07-28T07:40:51;17.90;99.90
23411;DHT22;11878;51.774;7.220;2023-07-28T07:43:54;17.90;99.90
23411;DHT22;11878;51.774;7.220;2023-07-28T07:47:00;18.10;99.90
23411;DHT22;11878;51.774;7.220;2023-07-28T07:50:05;18.20;99.90
23411;DHT22;11878;51.774;7.220;2023-07-28T07:53:09;18.30;99.90
23411;DHT22;11878;51.774;7.220;2023-07-28T07:56:15;18.40;99.90
23411;DHT22;11878;51.774;7.220;2023-07-28T07:59:17;18.30;99.90
23411;DHT22;11878;51.774;7.220;2023-07-28T08:02:19;18.40;99.90
23411;DHT22;11878;51.774;7.220;2023-07-28T08:05:21;18.30;99.90
23411;DHT22;11878;51.774;7.220;2023-07-28T08:08:24;18.30;99.90
23411;DHT22;11878;51.774;7.220;2023-07-28T08:11:33;18.30;99.90
23411;DHT22;11878;51.774;7.220;2023-07-28T08:14:36;18.30;99.90
23411;DHT22;11878;51.774;7.220;2023-07-28T08:17:38;18.30;99.90
23411;DHT22;11878;51.774;7.220;2023-07-28T08:20:43;18.20;99.90
23411;DHT22;11878;51.774;7.220;2023-07-28T08:23:46;18.20;99.90
23411;DHT22;11878;51.774;7.220;2023-07-28T08:26:50;18.20;99.90
23411;DHT22;11878;51.774;7.220;2023-07-28T08:29:52;18.20;99.90
23411;DHT22;11878;51.774;7.220;2023-07-28T08:32:54;18.30;99.90
23411;DHT22;11878;51.774;7.220;2023-07-28T08:35:59;18.30;99.90
23411;DHT22;11878;51.774;7.220;2023-07-28T08:39:07;18.30;99.90
23411;DHT22;11878;51.774;7.220;2023-07-28T08:42:25;18.20;99.90
23411;DHT22;11878;51.774;7.220;2023-07-28T08:45:27;18.10;99.90
23411;DHT22;11878;51.774;7.220;2023-07-28T08:48:29;18.20;99.90
23411;DHT22;11878;51.774;7.220;2023-07-28T08:51:32;18.30;99.90
23411;DHT22;11878;51.774;7.220;2023-07-28T08:54:35;18.30;99.90
23411;DHT22;11878;51.774;7.220;2023-07-28T08:57:45;18.50;99.90
23411;DHT22;11878;51.774;7.220;2023-07-28T09:00:50;18.50;99.90
23411;DHT22;11878;51.774;7.220;2023-07-28T09:03:52;18.70;99.90
23411;DHT22;11878;51.774;7.220;2023-07-28T09:06:54;18.70;99.90
23411;DHT22;11878;51.774;7.220;2023-07-28T09:10:00;18.90;99.90
23411;DHT22;11878;51.774;7.220;2023-07-28T09:13:02;19.10;99.90
23411;DHT22;11878;51.774;7.220;2023-07-28T09:16:19;19.00;99.90
23411;DHT22;11878;51.774;7.220;2023-07-28T09:19:22;19.00;99.90
23411;DHT22;11878;51.774;7.220;2023-07-28T09:22:24;18.90;99.90
23411;DHT22;11878;51.774;7.220;2023-07-28T09:25:29;19.00;99.90
23411;DHT22;11878;51.774;7.220;2023-07-28T09:28:38;19.00;99.90
23411;DHT22;11878;51.774;7.220;2023-07-28T09:31:45;19.10;99.90
23411;DHT22;11878;51.774;7.220;2023-07-28T09:34:48;19.20;99.90
23411;DHT22;11878;51.774;7.220;2023-07-28T09:37:53;19.30;99.90
23411;DHT22;11878;51.774;7.220;2023-07-28T09:41:00;19.70;99.90
23411;DHT22;11878;51.774;7.220;2023-07-28T09:44:03;19.90;99.90
23411;DHT22;11878;51.774;7.220;2023-07-28T09:47:06;20.10;99.90
23411;DHT22;11878;51.774;7.220;2023-07-28T09:50:09;20.40;99.90
23411;DHT22;11878;51.774;7.220;2023-07-28T09:53:13;20.40;99.90
23411;DHT22;11878;51.774;7.220;2023-07-28T09:56:16;20.40;99.90
23411;DHT22;11878;51.774;7.220;2023-07-28T09:59:20;20.30;99.90
23411;DHT22;11878;51.774;7.220;2023-07-28T10:02:25;20.10;99.90
23411;DHT22;11878;51.774;7.220;2023-07-28T10:05:40;20.10;99.90
23411;DHT22;11878;51.774;7.220;2023-07-28T10:08:43;20.10;99.90
23411;DHT22;11878;51.774;7.220;2023-07-28T10:11:49;20.00;99.90
23411;DHT22;11878;51.774;7.220;2023-07-28T10:15:01;20.30;99.90
23411;DHT22;11878;51.774;7.220;2023-07-28T10:18:05;20.30;99.90
23411;DHT22;11878;51.774;7.220;2023-07-28T10:21:10;21.00;99.90
23411;DHT22;11878;51.774;7.220;2023-07-28T10:24:15;21.40;99.90
23411;DHT22;11878;51.774;7.220;2023-07-28T10:27:47;21.80;99.90
23411;DHT22;11878;51.774;7.220;2023-07-28T10:30:55;21.80;99.90
23411;DHT22;11878;51.774;7.220;2023-07-28T10:33:57;21.50;99.90
23411;DHT22;11878;51.774;7.220;2023-07-28T10:37:05;21.60;99.90
23411;DHT22;11878;51.774;7.220;2023-07-28T10:40:40;21.70;99.90
23411;DHT22;11878;51.774;7.220;2023-07-28T10:43:49;21.90;99.90
23411;DHT22;11878;51.774;7.220;2023-07-28T10:46:52;22.60;99.90
23411;DHT22;11878;51.774;7.220;2023-07-28T10:49:54;22.40;99.90
23411;DHT22;11878;51.774;7.220;2023-07-28T10:52:57;21.80;99.90
23411;DHT22;11878;51.774;7.220;2023-07-28T10:56:13;21.60;99.90
23411;DHT22;11878;51.774;7.220;2023-07-28T10:59:18;21.60;99.90
23411;DHT22;11878;51.774;7.220;2023-07-28T11:02:20;21.50;99.90
23411;DHT22;11878;51.774;7.220;2023-07-28T11:05:30;21.60;99.90
23411;DHT22;11878;51.774;7.220;2023-07-28T11:08:34;21.70;99.90
23411;DHT22;11878;51.774;7.220;2023-07-28T11:11:38;21.90;99.90
23411;DHT22;11878;51.774;7.220;2023-07-28T11:14:42;22.20;99.90
23411;DHT22;11878;51.774;7.220;2023-07-28T11:17:46;22.40;99.90
23411;DHT22;11878;51.774;7.220;2023-07-28T11:20:49;22.60;99.90
23411;DHT22;11878;51.774;7.220;2023-07-28T11:23:51;22.60;99.90
23411;DHT22;11878;51.774;7.220;2023-07-28T11:27:01;22.30;99.90
23411;DHT22;11878;51.774;7.220;2023-07-28T11:30:08;22.00;99.90
23411;DHT22;11878;51.774;7.220;2023-07-28T11:33:12;22.20;99.90
23411;DHT22;11878;51.774;7.220;2023-07-28T11:36:24;21.90;99.90
23411;DHT22;11878;51.774;7.220;2023-07-28T11:39:36;22.10;99.90
23411;DHT22;11878;51.774;7.220;2023-07-28T11:42:54;22.20;99.90
23411;DHT22;11878;51.774;7.220;2023-07-28T11:52:54;22.20;99.90
23411;DHT22;11878;51.774;7.220;2023-07-28T11:56:04;22.00;99.90
23411;DHT22;11878;51.774;7.220;2023-07-28T11:59:10;22.10;99.90
23411;DHT22;11878;51.774;7.220;2023-07-28T12:02:15;22.30;99.90
23411;DHT22;11878;51.774;7.220;2023-07-28T12:05:25;22.40;99.90
23411;DHT22;11878;51.774;7.220;2023-07-28T12:08:35;22.50;99.90
23411;DHT22;11878;51.774;7.220;2023-07-28T12:11:44;22.30;99.90
23411;DHT22;11878;51.774;7.220;2023-07-28T12:14:49;22.10;99.90
23411;DHT22;11878;51.774;7.220;2023-07-28T12:18:14;22.40;99.90
23411;DHT22;11878;51.774;7.220;2023-07-28T12:21:19;22.40;99.90
23411;DHT22;11878;51.774;7.220;2023-07-28T12:24:25;22.10;99.90
23411;DHT22;11878;51.774;7.220;2023-07-28T12:27:34;22.00;99.90
23411;DHT22;11878;51.774;7.220;2023-07-28T12:30:39;22.20;99.90
23411;DHT22;11878;51.774;7.220;2023-07-28T12:33:41;22.10;99.90
23411;DHT22;11878;51.774;7.220;2023-07-28T12:36:43;22.30;99.90
23411;DHT22;11878;51.774;7.220;2023-07-28T12:39:50;22.30;99.90
23411;DHT22;11878;51.774;7.220;2023-07-28T12:43:12;22.50;99.90
23411;DHT22;11878;51.774;7.220;2023-07-28T12:46:17;22.50;99.90
23411;DHT22;11878;51.774;7.220;2023-07-28T12:49:20;22.60;99.90
23411;DHT22;11878;51.774;7.220;2023-07-28T12:52:23;22.70;99.90
23411;DHT22;11878;51.774;7.220;2023-07-28T12:55:45;22.60;99.90
23411;DHT22;11878;51.774;7.220;2023-07-28T12:59:10;22.70;99.90
23411;DHT22;11878;51.774;7.220;2023-07-28T13:02:19;22.80;99.90
23411;DHT22;11878;51.774;7.220;2023-07-28T13:09:27;22.80;99.90
23411;DHT22;11878;51.774;7.220;2023-07-28T13:12:37;22.80;99.90
23411;DHT22;11878;51.774;7.220;2023-07-28T13:15:45;22.90;99.90
23411;DHT22;11878;51.774;7.220;2023-07-28T13:18:56;23.00;99.90
23411;DHT22;11878;51.774;7.220;2023-07-28T13:22:01;22.80;99.90
23411;DHT22;11878;51.774;7.220;2023-07-28T13:25:09;22.80;99.90
23411;DHT22;11878;51.774;7.220;2023-07-28T13:28:15;22.80;99.90
23411;DHT22;11878;51.774;7.220;2023-07-28T13:31:21;22.80;99.90
23411;DHT22;11878;51.774;7.220;2023-07-28T13:34:23;22.70;99.90
23411;DHT22;11878;51.774;7.220;2023-07-28T13:37:25;22.90;99.90
23411;DHT22;11878;51.774;7.220;2023-07-28T13:40:34;22.90;99.90
23411;DHT22;11878;51.774;7.220;2023-07-28T13:43:43;22.90;99.90
23411;DHT22;11878;51.774;7.220;2023-07-28T13:46:53;23.00;99.90
23411;DHT22;11878;51.774;7.220;2023-07-28T13:50:25;23.00;99.90
23411;DHT22;11878;51.774;7.220;2023-07-28T13:53:39;23.30;99.90
23411;DHT22;11878;51.774;7.220;2023-07-28T13:57:15;23.20;99.90
23411;DHT22;11878;51.774;7.220;2023-07-28T14:00:37;23.20;99.90
23411;DHT22;11878;51.774;7.220;2023-07-28T14:03:50;23.20;99.90
23411;DHT22;11878;51.774;7.220;2023-07-28T14:07:02;23.20;99.90
23411;DHT22;11878;51.774;7.220;2023-07-28T14:10:04;23.40;99.90
23411;DHT22;11878;51.774;7.220;2023-07-28T14:13:08;23.50;99.90
23411;DHT22;11878;51.774;7.220;2023-07-28T14:16:10;23.70;99.90
23411;DHT22;11878;51.774;7.220;2023-07-28T14:19:13;23.70;99.90
23411;DHT22;11878;51.774;7.220;2023-07-28T14:22:15;23.60;99.90
23411;DHT22;11878;51.774;7.220;2023-07-28T14:25:20;23.40;99.90
23411;DHT22;11878;51.774;7.220;2023-07-28T14:28:27;23.70;99.90
23411;DHT22;11878;51.774;7.220;2023-07-28T14:31:32;23.60;99.90
23411;DHT22;11878;51.774;7.220;2023-07-28T14:34:38;23.80;99.90
23411;DHT22;11878;51.774;7.220;2023-07-28T14:37:42;23.90;99.90
23411;DHT22;11878;51.774;7.220;2023-07-28T14:40:46;23.80;99.90
23411;DHT22;11878;51.774;7.220;2023-07-28T14:43:54;23.80;99.90
23411;DHT22;11878;51.774;7.220;2023-07-28T14:46:59;23.80;99.90
23411;DHT22;11878;51.774;7.220;2023-07-28T14:50:01;23.80;99.90
23411;DHT22;11878;51.774;7.220;2023-07-28T14:53:29;23.90;99.90
23411;DHT22;11878;51.774;7.220;2023-07-28T14:56:33;23.60;99.90
23411;DHT22;11878;51.774;7.220;2023-07-28T14:59:35;23.60;99.90
23411;DHT22;11878;51.774;7.220;2023-07-28T15:02:47;23.70;99.90
23411;DHT22;11878;51.774;7.220;2023-07-28T15:05:52;23.80;99.90
23411;DHT22;11878;51.774;7.220;2023-07-28T15:09:07;24.00;99.90
23411;DHT22;11878;51.774;7.220;2023-07-28T15:12:13;23.90;99.90
23411;DHT22;11878;51.774;7.220;2023-07-28T15:15:19;23.90;99.90
23411;DHT22;11878;51.774;7.220;2023-07-28T15:18:25;23.80;99.90
23411;DHT22;11878;51.774;7.220;2023-07-28T15:21:44;23.80;99.90
23411;DHT22;11878;51.774;7.220;2023-07-28T15:25:01;23.70;99.90
23411;DHT22;11878;51.774;7.220;2023-07-28T15:28:15;23.80;99.90
23411;DHT22;11878;51.774;7.220;2023-07-28T15:31:23;23.70;99.90
23411;DHT22;11878;51.774;7.220;2023-07-28T15:34:31;23.60;99.90
23411;DHT22;11878;51.774;7.220;2023-07-28T15:37:36;23.80;99.90
23411;DHT22;11878;51.774;7.220;2023-07-28T15:40:40;23.70;99.90
23411;DHT22;11878;51.774;7.220;2023-07-28T15:43:51;23.70;99.90
23411;DHT22;11878;51.774;7.220;2023-07-28T15:47:11;23.70;99.90
23411;DHT22;11878;51.774;7.220;2023-07-28T15:50:36;23.60;99.90
23411;DHT22;11878;51.774;7.220;2023-07-28T15:53:51;23.40;99.90
23411;DHT22;11878;51.774;7.220;2023-07-28T15:56:56;23.30;99.90
23411;DHT22;11878;51.774;7.220;2023-07-28T16:00:05;23.30;99.90
23411;DHT22;11878;51.774;7.220;2023-07-28T16:03:13;23.30;99.90
23411;DHT22;11878;51.774;7.220;2023-07-28T16:06:41;23.40;99.90
23411;DHT22;11878;51.774;7.220;2023-07-28T16:09:48;23.30;99.90
23411;DHT22;11878;51.774;7.220;2023-07-28T16:16:14;23.70;99.90
23411;DHT22;11878;51.774;7.220;2023-07-28T16:19:28;23.60;99.90
23411;DHT22;11878;51.774;7.220;2023-07-28T16:22:36;23.30;99.90
23411;DHT22;11878;51.774;7.220;2023-07-28T16:25:42;23.10;99.90
23411;DHT22;11878;51.774;7.220;2023-07-28T16:28:51;23.00;99.90
23411;DHT22;11878;51.774;7.220;2023-07-28T16:32:08;23.20;99.90
23411;DHT22;11878;51.774;7.220;2023-07-28T16:35:18;23.30;99.90
23411;DHT22;11878;51.774;7.220;2023-07-28T16:55:47;23.10;99.90
23411;DHT22;11878;51.774;7.220;2023-07-28T16:58:52;22.90;99.90
23411;DHT22;11878;51.774;7.220;2023-07-28T17:02:00;22.80;99.90
23411;DHT22;11878;51.774;7.220;2023-07-28T17:05:28;22.70;99.90
23411;DHT22;11878;51.774;7.220;2023-07-28T17:08:30;22.50;99.90
23411;DHT22;11878;51.774;7.220;2023-07-28T17:11:42;22.50;99.90
23411;DHT22;11878;51.774;7.220;2023-07-28T17:14:55;22.80;99.90
23411;DHT22;11878;51.774;7.220;2023-07-28T17:18:03;23.10;99.90
23411;DHT22;11878;51.774;7.220;2023-07-28T17:21:13;23.20;99.90
23411;DHT22;11878;51.774;7.220;2023-07-28T17:24:17;23.40;99.90
23411;DHT22;11878;51.774;7.220;2023-07-28T17:27:29;24.10;99.90
23411;DHT22;11878;51.774;7.220;2023-07-28T17:30:34;23.60;99.90
23411;DHT22;11878;51.774;7.220;2023-07-28T17:33:55;23.50;99.90
23411;DHT22;11878;51.774;7.220;2023-07-28T17:36:58;24.00;99.90
23411;DHT22;11878;51.774;7.220;2023-07-28T17:40:04;24.10;99.90
23411;DHT22;11878;51.774;7.220;2023-07-28T17:43:16;23.30;99.90
23411;DHT22;11878;51.774;7.220;2023-07-28T17:46:19;23.00;99.90
23411;DHT22;11878;51.774;7.220;2023-07-28T17:49:24;23.00;99.90
23411;DHT22;11878;51.774;7.220;2023-07-28T17:52:27;23.00;99.90
23411;DHT22;11878;51.774;7.220;2023-07-28T17:55:30;22.90;99.90
23411;DHT22;11878;51.774;7.220;2023-07-28T17:58:39;22.80;99.90
23411;DHT22;11878;51.774;7.220;2023-07-28T18:01:41;22.70;99.90
23411;DHT22;11878;51.774;7.220;2023-07-28T18:04:44;22.60;99.90
23411;DHT22;11878;51.774;7.220;2023-07-28T18:07:52;22.60;99.90
23411;DHT22;11878;51.774;7.220;2023-07-28T18:10:59;22.50;99.90
23411;DHT22;11878;51.774;7.220;2023-07-28T18:14:04;22.40;99.90
23411;DHT22;11878;51.774;7.220;2023-07-28T18:17:14;22.40;99.90
23411;DHT22;11878;51.774;7.220;2023-07-28T18:20:23;22.30;99.90
23411;DHT22;11878;51.774;7.220;2023-07-28T18:23:25;22.20;99.90
23411;DHT22;11878;51.774;7.220;2023-07-28T18:26:28;22.10;99.90
23411;DHT22;11878;51.774;7.220;2023-07-28T18:29:33;22.00;99.90
23411;DHT22;11878;51.774;7.220;2023-07-28T18:32:40;21.90;99.90
23411;DHT22;11878;51.774;7.220;2023-07-28T18:35:49;21.80;99.90
23411;DHT22;11878;51.774;7.220;2023-07-28T18:38:59;21.80;99.90
23411;DHT22;11878;51.774;7.220;2023-07-28T18:42:02;21.70;99.90
23411;DHT22;11878;51.774;7.220;2023-07-28T18:45:05;21.70;99.90
23411;DHT22;11878;51.774;7.220;2023-07-28T18:48:13;21.60;99.90
23411;DHT22;11878;51.774;7.220;2023-07-28T18:51:16;21.50;99.90
23411;DHT22;11878;51.774;7.220;2023-07-28T18:54:21;21.50;99.90
23411;DHT22;11878;51.774;7.220;2023-07-28T18:57:24;21.50;99.90
23411;DHT22;11878;51.774;7.220;2023-07-28T19:00:26;21.40;99.90
23411;DHT22;11878;51.774;7.220;2023-07-28T19:03:36;21.30;99.90
23411;DHT22;11878;51.774;7.220;2023-07-28T19:06:43;21.10;99.90
23411;DHT22;11878;51.774;7.220;2023-07-28T19:09:46;21.00;99.90
23411;DHT22;11878;51.774;7.220;2023-07-28T19:12:48;20.90;99.90
23411;DHT22;11878;51.774;7.220;2023-07-28T19:15:57;20.80;99.90
23411;DHT22;11878;51.774;7.220;2023-07-28T19:19:01;20.80;99.90
23411;DHT22;11878;51.774;7.220;2023-07-28T19:22:06;20.90;99.90
23411;DHT22;11878;51.774;7.220;2023-07-28T19:25:11;20.90;99.90
23411;DHT22;11878;51.774;7.220;2023-07-28T19:28:30;20.70;99.90
23411;DHT22;11878;51.774;7.220;2023-07-28T19:31:38;20.60;99.90
23411;DHT22;11878;51.774;7.220;2023-07-28T19:34:43;20.50;99.90
23411;DHT22;11878;51.774;7.220;2023-07-28T19:37:51;20.40;99.90
23411;DHT22;11878;51.774;7.220;2023-07-28T19:40:54;20.50;99.90
23411;DHT22;11878;51.774;7.220;2023-07-28T19:43:58;20.40;99.90
23411;DHT22;11878;51.774;7.220;2023-07-28T19:47:03;20.40;99.90
23411;DHT22;11878;51.774;7.220;2023-07-28T19:50:07;20.30;99.90
23411;DHT22;11878;51.774;7.220;2023-07-28T19:53:13;20.20;99.90
23411;DHT22;11878;51.774;7.220;2023-07-28T19:56:18;20.20;99.90
23411;DHT22;11878;51.774;7.220;2023-07-28T19:59:21;20.10;99.90
23411;DHT22;11878;51.774;7.220;2023-07-28T20:02:34;20.10;99.90
23411;DHT22;11878;51.774;7.220;2023-07-28T20:05:48;20.00;99.90
23411;DHT22;11878;51.774;7.220;2023-07-28T20:08:53;19.90;99.90
23411;DHT22;11878;51.774;7.220;2023-07-28T20:12:01;19.90;99.90
23411;DHT22;11878;51.774;7.220;2023-07-28T20:15:07;19.80;99.90
23411;DHT22;11878;51.774;7.220;2023-07-28T20:18:20;19.70;99.90
23411;DHT22;11878;51.774;7.220;2023-07-28T20:21:25;19.70;99.90
23411;DHT22;11878;51.774;7.220;2023-07-28T20:24:28;19.60;99.90
23411;DHT22;11878;51.774;7.220;2023-07-28T20:27:39;19.60;99.90
23411;DHT22;11878;51.774;7.220;2023-07-28T20:30:44;19.60;99.90
23411;DHT22;11878;51.774;7.220;2023-07-28T20:33:47;19.60;99.90